PWSweather.com
Personal Weather Stations
Station Observations
NAPERVILLE
North Naperville, Naperville, IL 60563

North NapervilleNaperville, IL 60563

Lat: 41.79, Lon: -88.12

Elevation: 771

Station Type:

http://napervilleweather.com

Latest ConditionsUpdated 10:45:01 PM CDT Tuesday, Aug 20, 2019
Currently Today's Max Today's Min Today's Average
Temperature 66.1°F18.9°C 73.3°F22.9°C 66.1°F18.9°C 70.0°F21.1°C
Dew Point 65.2°F18.4°C 72.4°F22.4°C 65.2°F18.4°C 68.9°F20.5°C
Winds Calm Calm 1.0 mph -1.6 kmh - - 0.0 mph 0.0 kmh
Wind Gusts -- 4.0 mph6.4 kmh - -
Humidity 97% 97% 94% 96%
Pressure 29.97 in1014.9 mb 30.00 in1015.9 mb 29.88 in1011.9 mb -
Precipitation - 0.16 in4.1 mm - -
Hour Temp Dew Point Humidity Winds Wind Gusts Pressure Precip Precip Rate Daily Precip Total
10:45 PM 66.1°F18.9°C 65.2°F18.4°C 97% Calm Calm -- 29.97 in1014.9 mb 0.00 in0.0 mm 0.00 in0.0 mm 0.16 in4.1 mm
10:30 PM 66.2°F19.0°C 65.3°F18.5°C 97% Calm Calm -- 29.97 in1014.9 mb 0.00 in0.0 mm 0.00 in0.0 mm 0.16 in4.1 mm
10:15 PM 66.3°F19.1°C 65.4°F18.6°C 97% Calm Calm -- 29.96 in1014.6 mb 0.00 in0.0 mm 0.00 in0.0 mm 0.16 in4.1 mm
10:00 PM 66.6°F19.2°C 65.7°F18.7°C 97% Calm Calm -- 29.96 in1014.6 mb 0.00 in0.0 mm 0.00 in0.0 mm 0.16 in4.1 mm
09:45 PM 66.7°F19.3°C 65.8°F18.8°C 97% Calm Calm -- 29.95 in1014.2 mb 0.00 in0.0 mm 0.00 in0.0 mm 0.16 in4.1 mm
09:30 PM 66.6°F19.2°C 65.7°F18.7°C 97% Calm Calm -- 29.94 in1013.9 mb 0.00 in0.0 mm 0.00 in0.0 mm 0.16 in4.1 mm
09:15 PM 66.9°F19.4°C 66.0°F18.9°C 97% Calm Calm -- 29.94 in1013.9 mb 0.00 in0.0 mm 0.00 in0.0 mm 0.16 in4.1 mm
09:00 PM 67.1°F19.5°C 66.2°F19.0°C 97% Calm Calm -- 29.93 in1013.5 mb 0.00 in0.0 mm 0.00 in0.0 mm 0.16 in4.1 mm
08:45 PM 67.3°F19.6°C 66.4°F19.1°C 97% Calm Calm -- 29.91 in1012.9 mb 0.00 in0.0 mm 0.00 in0.0 mm 0.16 in4.1 mm
08:30 PM 67.4°F19.7°C 66.5°F19.2°C 97% Calm Calm -- 29.91 in1012.9 mb 0.00 in0.0 mm 0.00 in0.0 mm 0.16 in4.1 mm
08:15 PM 67.9°F19.9°C 67.0°F19.4°C 97% Calm Calm -- 29.90 in1012.5 mb 0.00 in0.0 mm 0.00 in0.0 mm 0.16 in4.1 mm
08:00 PM 68.2°F20.1°C 67.3°F19.6°C 97% Calm Calm -- 29.91 in1012.9 mb 0.00 in0.0 mm 0.00 in0.0 mm 0.16 in4.1 mm
07:45 PM 68.6°F20.3°C 67.7°F19.8°C 97% Calm Calm -- 29.90 in1012.5 mb 0.00 in0.0 mm 0.00 in0.0 mm 0.16 in4.1 mm
07:30 PM 68.8°F20.4°C 67.9°F19.9°C 97% Calm Calm -- 29.90 in1012.5 mb 0.00 in0.0 mm 0.00 in0.0 mm 0.16 in4.1 mm
07:15 PM 69.4°F20.8°C 68.5°F20.3°C 97% Calm Calm -- 29.89 in1012.2 mb 0.00 in0.0 mm 0.00 in0.0 mm 0.16 in4.1 mm
07:00 PM 69.7°F20.9°C 68.8°F20.4°C 97% Calm Calm -- 29.89 in1012.2 mb 0.00 in0.0 mm 0.00 in0.0 mm 0.16 in4.1 mm
06:45 PM 69.7°F20.9°C 68.8°F20.4°C 97% Calm Calm -- 29.88 in1011.9 mb 0.00 in0.0 mm 0.00 in0.0 mm 0.16 in4.1 mm
06:30 PM 69.5°F20.8°C 68.6°F20.3°C 97% Calm Calm -- 29.88 in1011.9 mb 0.00 in0.0 mm 0.00 in0.0 mm 0.16 in4.1 mm
06:15 PM 70.0°F21.1°C 69.1°F20.6°C 97% Calm Calm -- 29.89 in1012.2 mb 0.00 in0.0 mm 0.00 in0.0 mm 0.16 in4.1 mm
06:00 PM 69.9°F21.1°C 69.0°F20.6°C 97% Calm Calm 1.0 mph1.6 kmh 29.88 in1011.9 mb 0.00 in0.0 mm 0.00 in0.0 mm 0.16 in4.1 mm
05:45 PM 70.4°F21.3°C 69.5°F20.8°C 97% Calm Calm -- 29.88 in1011.9 mb 0.00 in0.0 mm 0.00 in0.0 mm 0.16 in4.1 mm
05:30 PM 69.5°F20.8°C 68.6°F20.3°C 97% Calm Calm -- 29.88 in1011.9 mb 0.00 in0.0 mm 0.00 in0.0 mm 0.16 in4.1 mm
05:15 PM 69.7°F20.9°C 68.8°F20.4°C 97% Calm Calm -- 29.89 in1012.2 mb 0.00 in0.0 mm 0.00 in0.0 mm 0.16 in4.1 mm
05:00 PM 69.8°F21.0°C 68.9°F20.5°C 97% Calm Calm 1.0 mph1.6 kmh 29.89 in1012.2 mb 0.00 in0.0 mm 0.00 in0.0 mm 0.16 in4.1 mm
04:45 PM 70.0°F21.1°C 69.1°F20.6°C 97% Calm Calm 1.0 mph1.6 kmh 29.90 in1012.5 mb 0.00 in0.0 mm 0.00 in0.0 mm 0.16 in4.1 mm
04:30 PM 69.8°F21.0°C 68.9°F20.5°C 97% Calm Calm 1.0 mph1.6 kmh 29.90 in1012.5 mb 0.00 in0.0 mm 0.00 in0.0 mm 0.16 in4.1 mm
04:15 PM 69.8°F21.0°C 68.9°F20.5°C 97% Calm Calm 1.0 mph1.6 kmh 29.91 in1012.9 mb 0.00 in0.0 mm 0.00 in0.0 mm 0.16 in4.1 mm
04:00 PM 70.4°F21.3°C 69.5°F20.8°C 97% Calm Calm 1.0 mph1.6 kmh 29.91 in1012.9 mb 0.00 in0.0 mm 0.00 in0.0 mm 0.16 in4.1 mm
03:45 PM 70.5°F21.4°C 69.6°F20.9°C 97% Calm Calm 1.0 mph1.6 kmh 29.91 in1012.9 mb 0.00 in0.0 mm 0.00 in0.0 mm 0.16 in4.1 mm
03:30 PM 69.4°F20.8°C 68.5°F20.3°C 97% Calm Calm 1.0 mph1.6 kmh 29.92 in1013.2 mb 0.04 in1.0 mm 0.00 in0.0 mm 0.16 in4.1 mm
03:15 PM 69.5°F20.8°C 68.3°F20.2°C 96% Calm Calm 1.0 mph1.6 kmh 29.93 in1013.5 mb 0.04 in1.0 mm 0.00 in0.0 mm 0.16 in4.1 mm
03:00 PM 70.1°F21.2°C 69.2°F20.7°C 97% Calm Calm 1.0 mph1.6 kmh 29.93 in1013.5 mb 0.05 in1.3 mm 0.00 in0.0 mm 0.16 in4.1 mm
02:45 PM 70.4°F21.3°C 69.5°F20.8°C 97% Calm Calm -- 29.95 in1014.2 mb 0.05 in1.3 mm 0.16 in4.1 mm 0.16 in4.1 mm
02:30 PM 70.6°F21.4°C 69.7°F20.9°C 97% Calm Calm -- 29.97 in1014.9 mb 0.01 in0.3 mm 0.00 in0.0 mm 0.12 in3.0 mm
02:15 PM 70.3°F21.3°C 69.4°F20.8°C 97% Calm Calm -- 29.97 in1014.9 mb 0.01 in0.3 mm 0.04 in1.0 mm 0.12 in3.0 mm
02:00 PM 70.1°F21.2°C 69.2°F20.7°C 97% Calm Calm 1.0 mph1.6 kmh 29.98 in1015.2 mb 0.00 in0.0 mm 0.00 in0.0 mm 0.11 in2.8 mm
01:45 PM 70.0°F21.1°C 69.1°F20.6°C 97% Calm Calm -- 29.98 in1015.2 mb 0.01 in0.3 mm 0.00 in0.0 mm 0.11 in2.8 mm
01:30 PM 69.9°F21.1°C 69.0°F20.6°C 97% Calm Calm 1.0 mph1.6 kmh 29.97 in1014.9 mb 0.06 in1.5 mm 0.00 in0.0 mm 0.11 in2.8 mm
01:15 PM 69.0°F20.6°C 68.1°F20.1°C 97% Calm Calm -- 29.94 in1013.9 mb 0.07 in1.8 mm 0.00 in0.0 mm 0.11 in2.8 mm
01:00 PM 68.3°F20.2°C 67.1°F19.5°C 96% Calm Calm 2.0 mph3.2 kmh 29.94 in1013.9 mb 0.09 in2.3 mm 0.01 in0.3 mm 0.11 in2.8 mm
12:45 PM 68.2°F20.1°C 67.0°F19.4°C 96% Calm Calm 1.0 mph1.6 kmh 29.91 in1012.9 mb 0.08 in2.0 mm 0.20 in5.1 mm 0.10 in2.5 mm
12:30 PM 68.3°F20.2°C 67.1°F19.5°C 96% Calm Calm 1.0 mph1.6 kmh 29.93 in1013.5 mb 0.03 in0.8 mm 0.00 in0.0 mm 0.05 in1.3 mm
12:15 PM 68.6°F20.3°C 67.1°F19.5°C 95% Calm Calm -- 29.93 in1013.5 mb 0.04 in1.0 mm 0.08 in2.0 mm 0.04 in1.0 mm
12:00 PM 68.7°F20.4°C 67.2°F19.6°C 95% Calm Calm -- 29.95 in1014.2 mb 0.02 in0.5 mm 0.00 in0.0 mm 0.02 in0.5 mm
11:45 AM 69.2°F20.7°C 67.7°F19.8°C 95% Calm Calm 3.0 mph4.8 kmh 29.96 in1014.6 mb 0.02 in0.5 mm 0.00 in0.0 mm 0.02 in0.5 mm
11:30 AM 71.1°F21.7°C 69.6°F20.9°C 95% 1.0 mph SE1.6 kmh SE 4.0 mph6.4 kmh 29.97 in1014.9 mb 0.02 in0.5 mm 0.08 in2.0 mm 0.02 in0.5 mm
11:15 AM 73.1°F22.8°C 72.2°F22.3°C 97% Calm Calm -- 29.97 in1014.9 mb 0.00 in0.0 mm 0.00 in0.0 mm 0.00 in0.0 mm
11:00 AM 73.1°F22.8°C 72.2°F22.3°C 97% Calm Calm -- 29.95 in1014.2 mb 0.00 in0.0 mm 0.00 in0.0 mm 0.00 in0.0 mm
10:45 AM 73.1°F22.8°C 72.2°F22.3°C 97% Calm Calm -- 29.95 in1014.2 mb 0.00 in0.0 mm 0.00 in0.0 mm 0.00 in0.0 mm
10:30 AM 73.1°F22.8°C 72.2°F22.3°C 97% Calm Calm -- 29.96 in1014.6 mb 0.00 in0.0 mm 0.00 in0.0 mm 0.00 in0.0 mm
10:15 AM 73.2°F22.9°C 72.3°F22.4°C 97% Calm Calm -- 29.96 in1014.6 mb 0.00 in0.0 mm 0.00 in0.0 mm 0.00 in0.0 mm
10:00 AM 73.3°F22.9°C 72.4°F22.4°C 97% Calm Calm -- 29.95 in1014.2 mb 0.00 in0.0 mm 0.00 in0.0 mm 0.00 in0.0 mm
09:45 AM 73.3°F22.9°C 72.4°F22.4°C 97% Calm Calm -- 29.96 in1014.6 mb 0.00 in0.0 mm 0.00 in0.0 mm 0.00 in0.0 mm
09:30 AM 73.1°F22.8°C 72.2°F22.3°C 97% Calm Calm -- 29.96 in1014.6 mb 0.00 in0.0 mm 0.00 in0.0 mm 0.00 in0.0 mm
09:15 AM 73.0°F22.8°C 72.1°F22.3°C 97% Calm Calm -- 29.97 in1014.9 mb 0.00 in0.0 mm 0.00 in0.0 mm 0.00 in0.0 mm
09:00 AM 72.8°F22.7°C 71.9°F22.2°C 97% Calm Calm -- 29.98 in1015.2 mb 0.00 in0.0 mm 0.00 in0.0 mm 0.00 in0.0 mm
08:45 AM 72.5°F22.5°C 71.6°F22.0°C 97% Calm Calm -- 29.98 in1015.2 mb 0.00 in0.0 mm 0.00 in0.0 mm 0.00 in0.0 mm
08:30 AM 72.2°F22.3°C 71.3°F21.8°C 97% Calm Calm -- 29.99 in1015.6 mb 0.00 in0.0 mm 0.00 in0.0 mm 0.00 in0.0 mm
08:15 AM 71.7°F22.1°C 70.8°F21.6°C 97% Calm Calm -- 29.99 in1015.6 mb 0.00 in0.0 mm 0.00 in0.0 mm 0.00 in0.0 mm
08:00 AM 71.1°F21.7°C 70.2°F21.2°C 97% Calm Calm -- 29.99 in1015.6 mb 0.00 in0.0 mm 0.00 in0.0 mm 0.00 in0.0 mm
07:45 AM 70.4°F21.3°C 69.5°F20.8°C 97% Calm Calm -- 29.98 in1015.2 mb 0.00 in0.0 mm 0.00 in0.0 mm 0.00 in0.0 mm
07:30 AM 70.0°F21.1°C 69.1°F20.6°C 97% Calm Calm -- 29.98 in1015.2 mb 0.00 in0.0 mm 0.00 in0.0 mm 0.00 in0.0 mm
07:15 AM 69.5°F20.8°C 68.3°F20.2°C 96% Calm Calm -- 29.98 in1015.2 mb 0.00 in0.0 mm 0.00 in0.0 mm 0.00 in0.0 mm
07:00 AM 69.3°F20.7°C 68.4°F20.2°C 97% Calm Calm -- 29.97 in1014.9 mb 0.00 in0.0 mm 0.00 in0.0 mm 0.00 in0.0 mm
06:45 AM 69.2°F20.7°C 68.0°F20.0°C 96% Calm Calm -- 29.97 in1014.9 mb 0.00 in0.0 mm 0.00 in0.0 mm 0.00 in0.0 mm
06:30 AM 69.0°F20.6°C 67.8°F19.9°C 96% Calm Calm -- 29.97 in1014.9 mb 0.00 in0.0 mm 0.00 in0.0 mm 0.00 in0.0 mm
06:15 AM 68.9°F20.5°C 67.7°F19.8°C 96% Calm Calm -- 29.95 in1014.2 mb 0.00 in0.0 mm 0.00 in0.0 mm 0.00 in0.0 mm
06:00 AM 69.0°F20.6°C 67.8°F19.9°C 96% Calm Calm -- 29.95 in1014.2 mb 0.00 in0.0 mm 0.00 in0.0 mm 0.00 in0.0 mm
05:45 AM 69.2°F20.7°C 68.0°F20.0°C 96% Calm Calm -- 29.96 in1014.6 mb 0.00 in0.0 mm 0.00 in0.0 mm 0.00 in0.0 mm
05:30 AM 69.3°F20.7°C 68.1°F20.1°C 96% Calm Calm -- 29.94 in1013.9 mb 0.00 in0.0 mm 0.00 in0.0 mm 0.00 in0.0 mm
05:15 AM 69.5°F20.8°C 68.3°F20.2°C 96% Calm Calm -- 29.94 in1013.9 mb 0.00 in0.0 mm 0.00 in0.0 mm 0.00 in0.0 mm
05:00 AM 69.7°F20.9°C 68.5°F20.3°C 96% Calm Calm -- 29.96 in1014.6 mb 0.00 in0.0 mm 0.00 in0.0 mm 0.00 in0.0 mm
04:45 AM 69.9°F21.1°C 68.7°F20.4°C 96% Calm Calm -- 29.98 in1015.2 mb 0.00 in0.0 mm 0.00 in0.0 mm 0.00 in0.0 mm
04:30 AM 69.9°F21.1°C 68.7°F20.4°C 96% Calm Calm -- 29.99 in1015.6 mb 0.00 in0.0 mm 0.00 in0.0 mm 0.00 in0.0 mm
04:15 AM 69.9°F21.1°C 68.7°F20.4°C 96% Calm Calm -- 29.99 in1015.6 mb 0.00 in0.0 mm 0.00 in0.0 mm 0.00 in0.0 mm
04:00 AM 70.1°F21.2°C 68.9°F20.5°C 96% Calm Calm -- 30.00 in1015.9 mb 0.00 in0.0 mm 0.00 in0.0 mm 0.00 in0.0 mm
03:45 AM 70.1°F21.2°C 68.9°F20.5°C 96% Calm Calm -- 30.00 in1015.9 mb 0.00 in0.0 mm 0.00 in0.0 mm 0.00 in0.0 mm
03:30 AM 70.0°F21.1°C 68.5°F20.3°C 95% Calm Calm -- 29.99 in1015.6 mb 0.00 in0.0 mm 0.00 in0.0 mm 0.00 in0.0 mm
03:15 AM 70.0°F21.1°C 68.5°F20.3°C 95% Calm Calm -- 29.99 in1015.6 mb 0.00 in0.0 mm 0.00 in0.0 mm 0.00 in0.0 mm
03:00 AM 70.1°F21.2°C 68.6°F20.3°C 95% Calm Calm -- 29.98 in1015.2 mb 0.00 in0.0 mm 0.00 in0.0 mm 0.00 in0.0 mm
02:45 AM 70.3°F21.3°C 68.8°F20.4°C 95% Calm Calm -- 29.99 in1015.6 mb 0.00 in0.0 mm 0.00 in0.0 mm 0.00 in0.0 mm
02:30 AM 70.5°F21.4°C 69.0°F20.6°C 95% Calm Calm -- 29.98 in1015.2 mb 0.00 in0.0 mm 0.00 in0.0 mm 0.00 in0.0 mm
02:15 AM 70.7°F21.5°C 69.2°F20.7°C 95% Calm Calm -- 29.99 in1015.6 mb 0.00 in0.0 mm 0.00 in0.0 mm 0.00 in0.0 mm
02:00 AM 70.8°F21.6°C 69.3°F20.7°C 95% Calm Calm -- 29.98 in1015.2 mb 0.00 in0.0 mm 0.00 in0.0 mm 0.00 in0.0 mm
01:45 AM 71.0°F21.7°C 69.5°F20.8°C 95% Calm Calm -- 29.98 in1015.2 mb 0.00 in0.0 mm 0.00 in0.0 mm 0.00 in0.0 mm
01:30 AM 71.1°F21.7°C 69.6°F20.9°C 95% Calm Calm -- 29.98 in1015.2 mb 0.00 in0.0 mm 0.00 in0.0 mm 0.00 in0.0 mm
01:15 AM 71.2°F21.8°C 69.4°F20.8°C 94% Calm Calm -- 29.98 in1015.2 mb 0.00 in0.0 mm 0.00 in0.0 mm 0.00 in0.0 mm
01:00 AM 71.3°F21.8°C 69.5°F20.8°C 94% Calm Calm -- 29.98 in1015.2 mb 0.00 in0.0 mm 0.00 in0.0 mm 0.00 in0.0 mm
12:45 AM 71.5°F21.9°C 69.7°F20.9°C 94% Calm Calm -- 29.98 in1015.2 mb 0.00 in0.0 mm 0.00 in0.0 mm 0.00 in0.0 mm
12:30 AM 71.8°F22.1°C 70.0°F21.1°C 94% Calm Calm -- 29.98 in1015.2 mb 0.00 in0.0 mm 0.00 in0.0 mm 0.00 in0.0 mm
12:15 AM 72.0°F22.2°C 70.2°F21.2°C 94% Calm Calm -- 29.98 in1015.2 mb 0.00 in0.0 mm 0.00 in0.0 mm 0.00 in0.0 mm
12:00 AM 72.2°F22.3°C 70.4°F21.3°C 94% Calm Calm -- 29.98 in1015.2 mb 0.00 in0.0 mm 0.00 in0.0 mm 0.00 in0.0 mm